createdAt,value
2023-05-19T00:00:12.081Z,28.60
2023-05-19T00:02:45.438Z,28.70
2023-05-19T00:05:20.160Z,28.70
2023-05-19T00:07:54.078Z,28.80
2023-05-19T00:10:24.350Z,28.80
2023-05-19T00:12:54.296Z,28.80
2023-05-19T00:15:24.780Z,28.80
2023-05-19T00:17:56.854Z,28.80
2023-05-19T00:20:27.064Z,28.90
2023-05-19T00:22:56.997Z,29.00
2023-05-19T00:25:27.364Z,29.00
2023-05-19T00:27:57.246Z,29.10
2023-05-19T00:30:27.449Z,29.10
2023-05-19T00:32:57.899Z,29.20
2023-05-19T00:35:28.093Z,29.20
2023-05-19T00:37:57.818Z,29.20
2023-05-19T00:40:31.795Z,29.30
2023-05-19T00:43:02.441Z,29.40
2023-05-19T00:45:32.499Z,29.50
2023-05-19T00:48:02.875Z,29.60
2023-05-19T00:50:33.504Z,29.60
2023-05-19T00:53:04.080Z,29.70
2023-05-19T00:55:35.401Z,29.80
2023-05-19T00:58:07.622Z,29.90
2023-05-19T01:00:38.582Z,30.00
2023-05-19T01:03:12.735Z,30.10
2023-05-19T01:05:46.289Z,30.00
2023-05-19T01:08:16.495Z,30.10
2023-05-19T01:10:46.306Z,30.20
2023-05-19T01:13:16.478Z,30.30
2023-05-19T01:16:03.383Z,30.40
2023-05-19T01:19:12.567Z,30.50
2023-05-19T01:22:24.397Z,30.50
2023-05-19T01:25:22.961Z,30.60
2023-05-19T01:28:28.647Z,30.70
2023-05-19T01:31:01.420Z,30.70
2023-05-19T01:33:33.031Z,30.80
2023-05-19T01:36:05.848Z,31.00
2023-05-19T01:38:37.296Z,31.00
2023-05-19T01:41:08.717Z,31.00
2023-05-19T01:43:39.157Z,31.10
2023-05-19T01:46:10.018Z,31.20
2023-05-19T01:48:40.394Z,31.30
2023-05-19T01:51:10.208Z,31.30
2023-05-19T01:53:40.470Z,31.50
2023-05-19T01:56:10.521Z,31.60
2023-05-19T01:58:48.741Z,31.70
2023-05-19T02:01:41.655Z,31.70
2023-05-19T02:04:41.349Z,31.80
2023-05-19T02:07:50.654Z,31.80
2023-05-19T02:10:34.134Z,31.90
2023-05-19T02:13:08.330Z,32.00
2023-05-19T02:15:46.618Z,32.10
2023-05-19T02:18:19.546Z,32.30
2023-05-19T02:20:53.600Z,32.30
2023-05-19T02:23:23.754Z,32.30
2023-05-19T02:25:53.685Z,32.40
2023-05-19T02:28:23.691Z,32.50
2023-05-19T02:30:53.522Z,32.50
2023-05-19T02:33:27.542Z,32.60
2023-05-19T02:35:58.282Z,32.70
2023-05-19T02:38:28.560Z,32.70
2023-05-19T02:40:58.597Z,32.90
2023-05-19T02:43:28.685Z,33.00
2023-05-19T02:45:58.541Z,33.10
2023-05-19T02:48:29.410Z,33.30
2023-05-19T02:51:02.091Z,33.50
2023-05-19T02:53:34.036Z,33.70
2023-05-19T02:56:04.209Z,33.60
2023-05-19T02:58:34.015Z,33.80
2023-05-19T03:01:04.196Z,33.70
2023-05-19T03:03:34.446Z,33.90
2023-05-19T03:06:04.688Z,33.80
2023-05-19T03:08:34.444Z,34.00
2023-05-19T03:11:05.282Z,34.00
2023-05-19T03:13:35.393Z,34.10
2023-05-19T03:16:05.300Z,34.20
2023-05-19T03:18:35.814Z,34.30
2023-05-19T03:21:05.747Z,34.30
2023-05-19T03:23:35.708Z,34.40
2023-05-19T03:26:06.937Z,34.50
2023-05-19T03:28:37.326Z,34.60
2023-05-19T03:31:07.537Z,34.60
2023-05-19T03:33:41.084Z,34.60
2023-05-19T03:36:11.558Z,34.70
2023-05-19T03:38:43.025Z,34.70
2023-05-19T03:41:13.217Z,34.80
2023-05-19T03:43:43.060Z,34.90
2023-05-19T03:46:13.058Z,34.90
2023-05-19T03:49:02.456Z,34.80
2023-05-19T03:51:52.554Z,35.10
2023-05-19T03:54:36.601Z,35.30
2023-05-19T03:57:07.222Z,35.50
2023-05-19T03:59:38.780Z,35.60
2023-05-19T04:02:09.316Z,35.60
2023-05-19T04:04:39.566Z,35.70
2023-05-19T04:07:09.608Z,35.80
2023-05-19T04:09:39.583Z,35.60
2023-05-19T04:12:10.119Z,35.80
2023-05-19T04:14:40.032Z,35.70
2023-05-19T04:17:09.990Z,36.00
2023-05-19T04:19:40.186Z,36.20
2023-05-19T04:22:09.990Z,36.20
2023-05-19T04:24:40.076Z,36.30
2023-05-19T04:27:13.461Z,36.20
2023-05-19T04:29:43.649Z,36.40
2023-05-19T04:32:13.518Z,36.40
2023-05-19T04:34:46.695Z,36.30
2023-05-19T04:37:23.328Z,36.30
2023-05-19T04:39:53.752Z,36.50
2023-05-19T04:42:27.651Z,36.70
2023-05-19T04:44:58.092Z,36.70
2023-05-19T04:47:31.500Z,36.70
2023-05-19T04:50:02.374Z,36.70
2023-05-19T04:52:32.816Z,36.80
2023-05-19T04:55:04.446Z,36.90
2023-05-19T04:57:34.724Z,37.00
2023-05-19T05:00:06.630Z,37.10
2023-05-19T05:02:44.380Z,37.20
2023-05-19T05:05:16.028Z,37.00
2023-05-19T05:07:46.061Z,36.90
2023-05-19T05:10:16.021Z,36.80
2023-05-19T05:12:46.321Z,37.10
2023-05-19T05:15:16.608Z,37.30
2023-05-19T05:17:49.366Z,37.20
2023-05-19T05:20:21.107Z,37.40
2023-05-19T05:22:51.512Z,37.50
2023-05-19T05:25:22.571Z,37.70
2023-05-19T05:27:54.062Z,37.80
2023-05-19T05:30:24.098Z,37.70
2023-05-19T05:32:54.267Z,37.70
2023-05-19T05:35:35.093Z,37.80
2023-05-19T05:38:06.883Z,37.70
2023-05-19T05:40:38.686Z,37.90
2023-05-19T05:43:10.718Z,38.00
2023-05-19T05:45:47.871Z,38.10
2023-05-19T05:48:18.619Z,38.30
2023-05-19T05:50:50.469Z,38.40
2023-05-19T05:53:26.602Z,38.40
2023-05-19T05:55:58.180Z,38.30
2023-05-19T05:58:37.376Z,38.40
2023-05-19T06:01:11.912Z,38.40
2023-05-19T06:03:45.737Z,38.50
2023-05-19T06:06:21.095Z,38.60
2023-05-19T06:08:51.236Z,38.60
2023-05-19T06:11:21.285Z,38.70
2023-05-19T06:13:53.552Z,38.50
2023-05-19T06:16:43.390Z,38.60
2023-05-19T06:19:14.019Z,38.80
2023-05-19T06:21:45.439Z,38.80
2023-05-19T06:24:15.944Z,38.70
2023-05-19T06:26:46.038Z,38.70
2023-05-19T06:29:16.231Z,38.70
2023-05-19T06:31:46.590Z,38.50
2023-05-19T06:34:19.292Z,38.70
2023-05-19T06:36:50.346Z,38.90
2023-05-19T06:39:22.181Z,38.90
2023-05-19T06:41:53.433Z,38.80
2023-05-19T06:44:42.944Z,39.00
2023-05-19T06:47:14.877Z,39.00
2023-05-19T06:49:45.302Z,39.10
2023-05-19T06:52:19.161Z,39.10
2023-05-19T06:54:50.409Z,39.00
2023-05-19T06:57:20.754Z,39.10
2023-05-19T06:59:50.790Z,39.20
2023-05-19T07:02:21.492Z,39.30
2023-05-19T07:04:53.132Z,39.50
2023-05-19T07:07:24.480Z,39.40
2023-05-19T07:09:54.523Z,39.30
2023-05-19T07:12:24.480Z,39.50
2023-05-19T07:14:55.488Z,39.50
2023-05-19T07:17:26.814Z,39.40
2023-05-19T07:19:57.178Z,39.40
2023-05-19T07:22:32.535Z,39.30
2023-05-19T07:25:02.958Z,39.10
2023-05-19T07:27:33.117Z,39.00
2023-05-19T07:30:03.319Z,39.30
2023-05-19T07:32:33.043Z,39.30
2023-05-19T07:35:02.996Z,39.30
2023-05-19T07:37:32.865Z,39.10
2023-05-19T07:40:03.045Z,39.30
2023-05-19T07:42:32.882Z,39.30
2023-05-19T07:45:04.681Z,39.40
2023-05-19T07:47:35.001Z,39.40
2023-05-19T07:50:05.220Z,39.40
2023-05-19T07:52:35.209Z,39.20
2023-05-19T07:55:05.063Z,39.00
2023-05-19T07:57:35.203Z,39.00
2023-05-19T08:00:09.136Z,39.10
2023-05-19T08:02:41.446Z,39.30
2023-05-19T08:05:13.082Z,39.20
2023-05-19T08:07:43.174Z,39.40
2023-05-19T08:10:12.990Z,39.40
2023-05-19T08:12:43.049Z,39.30
2023-05-19T08:15:13.342Z,39.50
2023-05-19T08:17:43.337Z,39.60
2023-05-19T08:20:16.456Z,39.50
2023-05-19T08:22:46.449Z,39.30
2023-05-19T08:25:16.444Z,39.30
2023-05-19T08:27:46.193Z,39.50
2023-05-19T08:30:16.100Z,39.50
2023-05-19T08:32:46.329Z,39.60
2023-05-19T08:35:16.333Z,39.40
2023-05-19T08:37:46.342Z,39.10
2023-05-19T08:40:20.138Z,39.30
2023-05-19T08:42:50.335Z,39.30
2023-05-19T08:45:27.763Z,39.30
2023-05-19T08:47:58.861Z,39.40
2023-05-19T08:50:41.220Z,39.30
2023-05-19T08:53:34.530Z,39.40
2023-05-19T08:56:13.242Z,39.30
2023-05-19T08:58:45.500Z,39.20
2023-05-19T09:01:18.378Z,39.00
2023-05-19T09:03:51.116Z,38.90
2023-05-19T09:06:21.171Z,38.90
2023-05-19T09:08:51.049Z,39.00
2023-05-19T09:11:21.137Z,38.80
2023-05-19T09:13:51.288Z,38.90
2023-05-19T09:16:21.531Z,38.90
2023-05-19T09:18:59.187Z,39.00
2023-05-19T09:21:35.504Z,38.90
2023-05-19T09:24:09.976Z,38.90
2023-05-19T09:26:44.559Z,38.90
2023-05-19T09:29:21.117Z,38.90
2023-05-19T09:32:07.726Z,38.90
2023-05-19T09:34:43.174Z,38.80
2023-05-19T09:37:15.596Z,38.70
2023-05-19T09:39:50.781Z,38.70
2023-05-19T09:42:31.310Z,38.90
2023-05-19T09:45:08.373Z,38.80
2023-05-19T09:47:43.635Z,38.70
2023-05-19T09:50:15.762Z,38.70
2023-05-19T09:52:46.706Z,38.60
2023-05-19T09:55:17.177Z,38.60
2023-05-19T09:57:47.763Z,38.60
2023-05-19T10:00:19.588Z,38.60
2023-05-19T10:02:51.848Z,38.50
2023-05-19T10:05:23.131Z,38.30
2023-05-19T10:07:55.927Z,38.40
2023-05-19T10:10:26.268Z,38.40
2023-05-19T10:12:57.029Z,38.30
2023-05-19T10:15:28.434Z,38.20
2023-05-19T10:17:59.053Z,38.10
2023-05-19T10:20:30.129Z,38.20
2023-05-19T10:23:00.210Z,38.10
2023-05-19T10:25:30.391Z,38.00
2023-05-19T10:28:13.368Z,38.00
2023-05-19T10:30:52.770Z,38.00
2023-05-19T10:33:24.656Z,37.90
2023-05-19T10:36:35.645Z,37.90
2023-05-19T10:39:15.313Z,37.70
2023-05-19T10:42:05.459Z,37.60
2023-05-19T10:44:55.987Z,37.60
2023-05-19T10:47:31.199Z,37.50
2023-05-19T10:50:03.065Z,37.30
2023-05-19T10:52:34.508Z,37.30
2023-05-19T10:55:06.301Z,37.20
2023-05-19T10:57:37.123Z,37.10
2023-05-19T11:00:30.741Z,37.00
2023-05-19T11:03:25.099Z,37.10
2023-05-19T11:05:55.330Z,36.90
2023-05-19T11:08:37.955Z,36.90
2023-05-19T11:11:18.591Z,36.80
2023-05-19T11:13:58.422Z,36.80
2023-05-19T11:16:33.810Z,36.70
2023-05-19T11:19:04.038Z,36.60
2023-05-19T11:21:56.340Z,36.60
2023-05-19T11:24:47.757Z,36.50
2023-05-19T11:27:35.426Z,36.30
2023-05-19T11:30:20.309Z,36.20
2023-05-19T11:32:50.665Z,36.20
2023-05-19T11:35:22.931Z,36.20
2023-05-19T11:37:55.780Z,36.30
2023-05-19T11:40:25.892Z,36.20
2023-05-19T11:42:55.855Z,36.20
2023-05-19T11:45:31.360Z,36.10
2023-05-19T11:48:04.441Z,36.10
2023-05-19T11:50:35.408Z,36.00
2023-05-19T11:53:05.662Z,35.90
2023-05-19T11:55:36.563Z,35.80
2023-05-19T11:58:06.925Z,35.60
2023-05-19T12:00:45.091Z,35.60
2023-05-19T12:03:15.728Z,35.70
2023-05-19T12:05:48.004Z,35.70
2023-05-19T12:08:23.157Z,35.60
2023-05-19T12:10:55.711Z,35.50
2023-05-19T12:13:25.983Z,35.40
2023-05-19T12:15:59.534Z,35.40
2023-05-19T12:18:33.425Z,35.40
2023-05-19T12:21:03.691Z,35.40
2023-05-19T12:23:34.279Z,35.30
2023-05-19T12:26:04.699Z,35.40
2023-05-19T12:28:34.763Z,35.40
2023-05-19T12:31:05.070Z,35.30
2023-05-19T12:33:36.356Z,35.30
2023-05-19T12:36:07.822Z,35.20
2023-05-19T12:38:41.124Z,35.10
2023-05-19T12:41:15.336Z,35.00
2023-05-19T12:43:45.846Z,34.80
2023-05-19T12:46:18.131Z,34.80
2023-05-19T12:48:49.731Z,34.80
2023-05-19T12:51:21.102Z,34.80
2023-05-19T12:53:53.366Z,34.90
2023-05-19T12:56:23.715Z,34.80
2023-05-19T12:58:57.202Z,34.60
2023-05-19T13:01:27.558Z,34.70
2023-05-19T13:03:59.688Z,34.80
2023-05-19T13:06:30.021Z,34.80
2023-05-19T13:09:00.051Z,34.70
2023-05-19T13:11:30.723Z,34.70
2023-05-19T13:14:00.664Z,34.70
2023-05-19T13:16:30.966Z,34.70
2023-05-19T13:19:01.497Z,34.70
2023-05-19T13:21:31.612Z,34.70
2023-05-19T13:24:01.843Z,34.70
2023-05-19T13:26:32.035Z,34.40
2023-05-19T13:29:02.810Z,34.40
2023-05-19T13:31:32.943Z,34.20
2023-05-19T13:34:03.429Z,34.20
2023-05-19T13:36:34.801Z,34.10
2023-05-19T13:39:05.061Z,34.30
2023-05-19T13:41:35.260Z,34.10
2023-05-19T13:44:05.451Z,34.20
2023-05-19T13:46:44.845Z,34.20
2023-05-19T13:49:16.007Z,34.10
2023-05-19T13:51:46.055Z,34.00
2023-05-19T13:54:16.126Z,34.10
2023-05-19T13:56:48.623Z,33.90
2023-05-19T13:59:24.874Z,33.90
2023-05-19T14:01:55.155Z,33.80
2023-05-19T14:04:28.309Z,33.70
2023-05-19T14:06:58.720Z,33.70
2023-05-19T14:09:29.886Z,33.60
2023-05-19T14:12:00.550Z,33.60
2023-05-19T14:14:30.487Z,33.50
2023-05-19T14:17:00.841Z,33.50
2023-05-19T14:19:31.679Z,33.40
2023-05-19T14:22:01.841Z,33.40
2023-05-19T14:24:32.096Z,33.30
2023-05-19T14:27:02.217Z,33.30
2023-05-19T14:29:32.752Z,33.30
2023-05-19T14:32:04.289Z,33.30
2023-05-19T14:34:34.512Z,33.30
2023-05-19T14:37:04.393Z,33.20
2023-05-19T14:39:34.388Z,33.20
2023-05-19T14:42:04.149Z,33.10
2023-05-19T14:44:34.718Z,33.10
2023-05-19T14:47:05.737Z,33.00
2023-05-19T14:49:35.970Z,33.00
2023-05-19T14:52:06.140Z,33.00
2023-05-19T14:54:36.283Z,33.00
2023-05-19T14:57:06.188Z,33.00
2023-05-19T14:59:39.659Z,33.00
2023-05-19T15:02:09.715Z,33.00
2023-05-19T15:04:39.550Z,33.00
2023-05-19T15:07:10.724Z,33.00
2023-05-19T15:09:41.202Z,32.90
2023-05-19T15:12:11.058Z,32.90
2023-05-19T15:14:41.161Z,32.80
2023-05-19T15:17:11.134Z,32.90
2023-05-19T15:19:43.462Z,32.90
2023-05-19T15:22:13.673Z,32.90
2023-05-19T15:24:43.414Z,32.90
2023-05-19T15:27:13.523Z,32.80
2023-05-19T15:29:43.411Z,32.70
2023-05-19T15:32:13.602Z,32.70
2023-05-19T15:34:44.722Z,32.70
2023-05-19T15:37:14.852Z,32.70
2023-05-19T15:39:44.633Z,32.70
2023-05-19T15:42:14.586Z,32.60
2023-05-19T15:44:47.306Z,32.70
2023-05-19T15:47:18.164Z,32.60
2023-05-19T15:49:48.132Z,32.60
2023-05-19T15:52:18.178Z,32.60
2023-05-19T15:54:50.191Z,32.60
2023-05-19T15:57:23.000Z,32.60
2023-05-19T15:59:53.058Z,32.60
2023-05-19T16:02:26.716Z,32.60
2023-05-19T16:04:59.756Z,32.50
2023-05-19T16:07:29.856Z,32.40
2023-05-19T16:09:59.927Z,32.40
2023-05-19T16:12:31.586Z,32.40
2023-05-19T16:15:01.573Z,32.40
2023-05-19T16:17:31.469Z,32.40
2023-05-19T16:20:01.456Z,32.40
2023-05-19T16:22:32.115Z,32.30
2023-05-19T16:25:02.443Z,32.30
2023-05-19T16:27:32.184Z,32.20
2023-05-19T16:30:02.702Z,32.20
2023-05-19T16:32:32.456Z,32.30
2023-05-19T16:35:02.645Z,32.40
2023-05-19T16:37:32.529Z,32.40
2023-05-19T16:40:02.638Z,32.30
2023-05-19T16:42:33.526Z,32.10
2023-05-19T16:45:04.023Z,32.10
2023-05-19T16:47:34.765Z,32.10
2023-05-19T16:50:05.047Z,32.00
2023-05-19T16:52:35.361Z,32.10
2023-05-19T16:55:05.705Z,32.00
2023-05-19T16:57:35.803Z,32.00
2023-05-19T17:00:06.064Z,31.80
2023-05-19T17:02:36.400Z,31.80
2023-05-19T17:05:06.645Z,31.60
2023-05-19T17:07:36.829Z,31.70
2023-05-19T17:10:07.130Z,31.70
2023-05-19T17:12:37.948Z,31.70
2023-05-19T17:15:08.440Z,31.60
2023-05-19T17:17:38.750Z,31.70
2023-05-19T17:20:09.415Z,31.70
2023-05-19T17:22:39.652Z,31.70
2023-05-19T17:25:10.270Z,31.60
2023-05-19T17:27:40.728Z,31.40
2023-05-19T17:30:11.147Z,31.50
2023-05-19T17:32:41.176Z,31.60
2023-05-19T17:35:11.312Z,31.70
2023-05-19T17:37:41.990Z,31.60
2023-05-19T17:40:12.735Z,31.60
2023-05-19T17:42:42.651Z,31.70
2023-05-19T17:45:14.001Z,31.70
2023-05-19T17:47:49.515Z,31.70
2023-05-19T17:50:19.768Z,31.70
2023-05-19T17:52:50.353Z,31.70
2023-05-19T17:55:20.975Z,31.70
2023-05-19T17:57:51.412Z,31.70
2023-05-19T18:00:22.099Z,31.60
2023-05-19T18:02:52.823Z,31.50
2023-05-19T18:05:26.231Z,31.40
2023-05-19T18:07:59.965Z,31.40
2023-05-19T18:10:30.238Z,31.40
2023-05-19T18:13:00.130Z,31.40
2023-05-19T18:15:30.288Z,31.40
2023-05-19T18:18:00.252Z,31.30
2023-05-19T18:20:32.550Z,31.40
2023-05-19T18:23:03.637Z,31.40
2023-05-19T18:25:33.476Z,31.30
2023-05-19T18:28:03.420Z,31.30
2023-05-19T18:30:33.431Z,31.00
2023-05-19T18:33:05.047Z,30.90
2023-05-19T18:35:36.489Z,30.90
2023-05-19T18:38:06.681Z,31.00
2023-05-19T18:40:36.591Z,30.90
2023-05-19T18:43:06.854Z,30.90
2023-05-19T18:45:38.207Z,30.90
2023-05-19T18:48:09.612Z,30.90
2023-05-19T18:50:39.669Z,30.90
2023-05-19T18:53:09.462Z,30.90
2023-05-19T18:55:39.665Z,30.90
2023-05-19T18:58:09.426Z,30.90
2023-05-19T19:00:39.564Z,30.80
2023-05-19T19:03:11.840Z,30.90
2023-05-19T19:05:42.315Z,30.80
2023-05-19T19:08:12.414Z,30.80
2023-05-19T19:10:42.388Z,30.90
2023-05-19T19:13:12.197Z,30.90
2023-05-19T19:15:42.429Z,30.90
2023-05-19T19:18:12.911Z,30.90
2023-05-19T19:20:43.108Z,30.70
2023-05-19T19:23:12.888Z,30.70
2023-05-19T19:25:43.054Z,30.70
2023-05-19T19:28:13.289Z,30.80
2023-05-19T19:30:43.502Z,30.80
2023-05-19T19:33:13.387Z,30.80
2023-05-19T19:35:43.478Z,30.80
2023-05-19T19:38:13.325Z,30.90
2023-05-19T19:40:43.521Z,30.70
2023-05-19T19:43:13.560Z,30.70
2023-05-19T19:45:43.739Z,30.80
2023-05-19T19:48:16.957Z,30.70
2023-05-19T19:50:46.992Z,30.70
2023-05-19T19:53:17.433Z,30.80
2023-05-19T19:55:47.918Z,30.60
2023-05-19T19:58:17.699Z,30.50
2023-05-19T20:00:47.757Z,30.50
2023-05-19T20:03:17.759Z,30.50
2023-05-19T20:05:48.259Z,30.40
2023-05-19T20:08:18.181Z,30.40
2023-05-19T20:10:52.088Z,30.20
2023-05-19T20:13:22.339Z,30.30
2023-05-19T20:15:52.625Z,30.20
2023-05-19T20:18:23.418Z,30.20
2023-05-19T20:20:53.456Z,30.20
2023-05-19T20:23:23.350Z,30.20
2023-05-19T20:26:09.927Z,30.20
2023-05-19T20:28:41.716Z,30.30
2023-05-19T20:31:11.889Z,30.30
2023-05-19T20:33:42.085Z,30.20
2023-05-19T20:36:12.640Z,30.00
2023-05-19T20:38:42.648Z,30.10
2023-05-19T20:41:12.569Z,30.20
2023-05-19T20:43:42.926Z,30.30
2023-05-19T20:46:13.469Z,30.30
2023-05-19T20:48:43.750Z,30.20
2023-05-19T20:51:13.903Z,30.00
2023-05-19T20:53:43.930Z,29.90
2023-05-19T20:56:14.615Z,30.00
2023-05-19T20:58:44.511Z,30.10
2023-05-19T21:01:14.761Z,30.10
2023-05-19T21:03:44.550Z,30.20
2023-05-19T21:06:14.742Z,30.10
2023-05-19T21:08:44.628Z,30.10
2023-05-19T21:11:14.948Z,30.10
2023-05-19T21:13:44.833Z,29.90
2023-05-19T21:16:14.862Z,29.90
2023-05-19T21:18:44.688Z,29.90
2023-05-19T21:21:14.990Z,30.00
2023-05-19T21:23:44.827Z,30.00
2023-05-19T21:26:14.868Z,30.00
2023-05-19T21:28:44.771Z,29.90
2023-05-19T21:31:15.438Z,29.90
2023-05-19T21:33:45.470Z,29.90
2023-05-19T21:36:15.516Z,30.00
2023-05-19T21:38:45.497Z,30.00
2023-05-19T21:41:16.027Z,30.00
2023-05-19T21:43:47.223Z,30.00
2023-05-19T21:46:17.788Z,29.90
2023-05-19T21:48:48.268Z,29.80
2023-05-19T21:51:18.430Z,29.70
2023-05-19T21:53:48.299Z,29.70
2023-05-19T21:56:18.615Z,29.70
2023-05-19T21:58:48.558Z,29.80
2023-05-19T22:01:18.984Z,29.60
2023-05-19T22:03:49.400Z,29.50
2023-05-19T22:06:19.345Z,29.50
2023-05-19T22:08:49.434Z,29.50
2023-05-19T22:11:19.534Z,29.40
2023-05-19T22:13:49.848Z,29.40
2023-05-19T22:16:19.799Z,29.50
2023-05-19T22:18:49.872Z,29.50
2023-05-19T22:21:19.875Z,29.50
2023-05-19T22:23:50.111Z,29.50
2023-05-19T22:26:20.041Z,29.40
2023-05-19T22:28:51.913Z,29.40
2023-05-19T22:31:22.286Z,29.40
2023-05-19T22:33:53.076Z,29.50
2023-05-19T22:36:23.294Z,29.40
2023-05-19T22:38:53.103Z,29.30
2023-05-19T22:41:23.226Z,29.30
2023-05-19T22:43:53.098Z,29.30
2023-05-19T22:46:23.524Z,29.20
2023-05-19T22:48:53.884Z,29.20
2023-05-19T22:51:24.247Z,29.20
2023-05-19T22:53:54.027Z,29.20
2023-05-19T22:56:24.131Z,29.10
2023-05-19T22:58:53.911Z,29.10
2023-05-19T23:01:24.256Z,29.10
2023-05-19T23:03:54.124Z,29.00
2023-05-19T23:06:24.445Z,29.10
2023-05-19T23:09:04.988Z,29.10
2023-05-19T23:11:36.291Z,29.10
2023-05-19T23:14:06.532Z,29.20
2023-05-19T23:16:39.106Z,29.20
2023-05-19T23:19:09.141Z,29.20
2023-05-19T23:21:39.008Z,29.20
2023-05-19T23:24:11.351Z,29.10
2023-05-19T23:26:41.344Z,29.20
2023-05-19T23:29:14.581Z,29.30
2023-05-19T23:31:45.810Z,29.30
2023-05-19T23:34:15.867Z,29.20
2023-05-19T23:36:45.763Z,29.30
2023-05-19T23:39:15.863Z,29.20
2023-05-19T23:41:45.632Z,29.30
2023-05-19T23:44:15.647Z,29.40
2023-05-19T23:46:45.707Z,29.40
2023-05-19T23:49:16.729Z,29.40
2023-05-19T23:51:46.604Z,29.40
2023-05-19T23:54:16.623Z,29.50
2023-05-19T23:56:46.492Z,29.60
2023-05-19T23:59:16.671Z,29.60
